Time;durP1;ratioP1;P1;durP2;ratioP2;P2;SDS_P1;SDS_P2;PMS_P1;PMS_P2;Temp;Humidity;BMP_temperature;BMP_pressure;BME280_temperature;BME280_humidity;BME280_pressure;Samples;Min_cycle;Max_cycle;Signal;HPM_P1;HPM_P2
2022/11/09 00:00:38;;;;;;;3.20;0.80;;;13.80;99.90;;;;;;5033723;28;20096;-55
2022/11/09 00:03:04;;;;;;;3.70;1.10;;;13.80;99.90;;;;;;5033433;28;20525;-54
2022/11/09 00:05:30;;;;;;;2.47;1.00;;;13.70;99.90;;;;;;5034158;28;20037;-57
2022/11/09 00:07:56;;;;;;;2.05;0.55;;;13.80;99.90;;;;;;5037443;28;20087;-59
2022/11/09 00:10:21;;;;;;;4.20;0.80;;;13.80;99.90;;;;;;5054003;28;20073;-57
2022/11/09 00:12:47;;;;;;;7.13;0.97;;;13.80;99.90;;;;;;5041554;28;20084;-57
2022/11/09 00:15:12;;;;;;;4.43;1.23;;;13.80;99.90;;;;;;5052559;28;20045;-55
2022/11/09 00:17:38;;;;;;;7.95;1.40;;;13.70;99.90;;;;;;5058074;28;20279;-57
2022/11/09 00:20:04;;;;;;;5.53;1.33;;;13.70;99.90;;;;;;5041215;28;20033;-57
2022/11/09 00:22:29;;;;;;;10.45;1.60;;;13.70;99.90;;;;;;5043772;28;20098;-57
2022/11/09 00:24:55;;;;;;;6.10;1.20;;;13.70;99.90;;;;;;5046170;28;20041;-54
2022/11/09 00:27:20;;;;;;;3.80;1.23;;;13.60;99.90;;;;;;5049423;28;20076;-57
2022/11/09 00:29:46;;;;;;;7.03;0.90;;;13.70;99.90;;;;;;5040759;28;20330;-56
2022/11/09 00:32:11;;;;;;;2.93;1.03;;;13.70;99.90;;;;;;5033253;28;20049;-55
2022/11/09 00:34:37;;;;;;;4.47;0.82;;;13.70;99.90;;;;;;5046762;28;20283;-58
2022/11/09 00:37:03;;;;;;;6.60;1.88;;;13.60;99.90;;;;;;5041359;28;20040;-55
2022/11/09 00:39:28;;;;;;;7.65;1.33;;;13.60;99.90;;;;;;5051365;28;20030;-56
2022/11/09 00:41:54;;;;;;;2.63;0.60;;;13.60;99.90;;;;;;5066550;28;20090;-57
2022/11/09 00:44:19;;;;;;;5.10;0.97;;;13.60;99.90;;;;;;5056925;28;20045;-57
2022/11/09 00:46:45;;;;;;;9.20;1.73;;;13.60;99.90;;;;;;5032797;28;20283;-57
2022/11/09 00:49:10;;;;;;;3.90;1.67;;;13.60;99.90;;;;;;5033386;28;20797;-55
2022/11/09 00:51:36;;;;;;;4.10;1.03;;;13.60;99.90;;;;;;5047977;28;20295;-55
2022/11/09 00:54:02;;;;;;;6.22;1.05;;;13.60;99.90;;;;;;5060140;28;20318;-56
2022/11/09 00:56:27;;;;;;;3.88;1.05;;;13.60;99.90;;;;;;5073204;28;20037;-56
2022/11/09 00:58:54;;;;;;;4.97;1.73;;;13.70;99.90;;;;;;5072976;28;20042;-57
2022/11/09 01:01:20;;;;;;;6.40;1.50;;;13.70;99.90;;;;;;5052440;28;20288;-58
2022/11/09 01:03:46;;;;;;;3.83;1.38;;;13.70;99.90;;;;;;5051304;28;20120;-56
2022/11/09 01:06:24;;;;;;;6.50;1.60;;;13.80;99.90;;;;;;5052951;28;20509;-57
2022/11/09 01:08:50;;;;;;;3.42;0.88;;;13.80;99.90;;;;;;5052218;28;20040;-58
2022/11/09 01:11:18;;;;;;;5.07;1.30;;;13.80;99.90;;;;;;5051258;28;20036;-57
2022/11/09 01:13:44;;;;;;;9.50;1.35;;;13.80;99.90;;;;;;5051680;28;20040;-59
2022/11/09 01:16:16;;;;;;;1.98;1.10;;;13.80;99.90;;;;;;5052920;28;20307;-58
2022/11/09 01:18:42;;;;;;;6.90;1.25;;;13.80;99.90;;;;;;5052576;28;20041;-58
2022/11/09 01:21:11;;;;;;;4.20;0.85;;;13.80;99.90;;;;;;5033330;28;20037;-57
2022/11/09 01:23:37;;;;;;;5.30;1.13;;;13.90;99.90;;;;;;5051019;28;20517;-58
2022/11/09 01:26:06;;;;;;;7.40;1.40;;;13.80;99.90;;;;;;5052290;28;20398;-57
2022/11/09 01:28:31;;;;;;;4.65;1.08;;;13.90;99.90;;;;;;5052501;28;20036;-55
2022/11/09 01:31:05;;;;;;;4.28;0.77;;;13.90;99.90;;;;;;5052870;28;20043;-58
2022/11/09 01:33:31;;;;;;;3.70;1.00;;;13.90;99.90;;;;;;5050321;28;20448;-59
2022/11/09 01:36:04;;;;;;;11.90;1.95;;;13.90;99.90;;;;;;5052382;28;20124;-59
2022/11/09 01:38:30;;;;;;;5.45;1.02;;;13.80;99.90;;;;;;5046231;28;20056;-58
2022/11/09 01:40:55;;;;;;;6.28;1.52;;;13.80;99.90;;;;;;5031593;28;20037;-58
2022/11/09 01:43:23;;;;;;;5.83;0.90;;;13.80;99.90;;;;;;5039292;28;20037;-59
2022/11/09 01:46:19;;;;;;;6.20;1.10;;;13.80;99.90;;;;;;5051866;28;20742;-59
2022/11/09 01:48:57;;;;;;;5.57;1.85;;;13.70;99.90;;;;;;5046138;28;20124;-58
2022/11/09 01:51:33;;;;;;;6.05;1.40;;;13.70;99.90;;;;;;5031819;28;20516;-58
2022/11/09 01:54:25;;;;;;;12.35;1.25;;;13.70;99.90;;;;;;5041477;28;20037;-59
2022/11/09 01:56:55;;;;;;;8.35;0.90;;;13.70;99.90;;;;;;5047765;28;20044;-58
2022/11/09 01:59:25;;;;;;;3.75;1.02;;;13.70;99.90;;;;;;5039211;28;20056;-58
2022/11/09 02:01:52;;;;;;;3.38;1.00;;;13.60;99.90;;;;;;5039797;28;20037;-58
2022/11/09 02:04:34;;;;;;;5.45;0.88;;;13.60;99.90;;;;;;5051492;28;20041;-58
2022/11/09 02:07:01;;;;;;;5.57;0.95;;;13.60;99.90;;;;;;5063275;28;20067;-58
2022/11/09 02:09:42;;;;;;;3.70;1.00;;;13.50;99.90;;;;;;5062662;28;20037;-57
2022/11/09 02:12:08;;;;;;;6.72;1.05;;;13.50;99.90;;;;;;5031318;28;20077;-58
2022/11/09 02:14:36;;;;;;;5.20;1.08;;;13.50;99.90;;;;;;5032147;28;20080;-58
2022/11/09 02:17:01;;;;;;;9.80;1.60;;;13.40;99.90;;;;;;5031671;28;20041;-56
2022/11/09 02:19:27;;;;;;;6.40;1.25;;;13.40;99.90;;;;;;5061566;28;20174;-55
2022/11/09 02:21:53;;;;;;;3.50;0.63;;;13.40;99.90;;;;;;5033064;28;20033;-57
2022/11/09 02:24:18;;;;;;;4.05;1.30;;;13.40;99.90;;;;;;5030605;28;20037;-57
2022/11/09 02:26:48;;;;;;;5.97;0.98;;;13.40;99.90;;;;;;5031089;28;20418;-58
2022/11/09 02:29:21;;;;;;;6.57;0.85;;;13.40;99.90;;;;;;5031613;28;20453;-58
2022/11/09 02:31:52;;;;;;;7.63;0.80;;;13.40;99.90;;;;;;5032272;28;20041;-55
2022/11/09 02:34:19;;;;;;;3.83;0.93;;;13.40;99.90;;;;;;5031867;28;20118;-57
2022/11/09 02:36:45;;;;;;;5.72;1.00;;;13.40;99.90;;;;;;5030966;28;20052;-54
2022/11/09 02:39:13;;;;;;;7.88;1.13;;;13.40;99.90;;;;;;5030502;28;20049;-56
2022/11/09 02:41:44;;;;;;;7.55;1.58;;;13.40;99.90;;;;;;5040329;28;20079;-55
2022/11/09 02:44:11;;;;;;;4.25;1.15;;;13.40;99.90;;;;;;5047705;28;20036;-56
2022/11/09 02:46:39;;;;;;;5.55;1.20;;;13.30;99.90;;;;;;5039840;28;20029;-56
2022/11/09 02:49:04;;;;;;;6.80;0.98;;;13.40;99.90;;;;;;5051302;28;20037;-58
2022/11/09 02:51:30;;;;;;;10.37;2.07;;;13.40;99.90;;;;;;5034981;28;20044;-54
2022/11/09 02:53:56;;;;;;;4.65;1.45;;;13.40;99.90;;;;;;5030550;28;20757;-56
2022/11/09 02:56:21;;;;;;;6.57;1.10;;;13.30;99.90;;;;;;5032189;28;20128;-54
2022/11/09 02:58:47;;;;;;;6.13;1.02;;;13.30;99.90;;;;;;5049245;28;20120;-54
2022/11/09 03:01:13;;;;;;;6.43;0.80;;;13.30;99.90;;;;;;5050724;28;20087;-55
2022/11/09 03:03:38;;;;;;;6.22;0.93;;;13.20;99.90;;;;;;5065162;28;20534;-56
2022/11/09 03:06:04;;;;;;;7.25;1.23;;;13.20;99.90;;;;;;5066146;28;20036;-55
2022/11/09 03:08:30;;;;;;;4.07;0.80;;;13.20;99.90;;;;;;5029487;28;20037;-54
2022/11/09 03:10:57;;;;;;;2.40;0.90;;;13.20;99.90;;;;;;5030794;28;20041;-58
2022/11/09 03:13:23;;;;;;;5.72;1.00;;;13.20;99.90;;;;;;5030032;28;20041;-56
2022/11/09 03:15:48;;;;;;;13.37;2.23;;;13.20;99.90;;;;;;5030815;28;20560;-56
2022/11/09 03:18:14;;;;;;;8.40;1.37;;;13.20;99.90;;;;;;5031839;28;20291;-58
2022/11/09 03:20:39;;;;;;;10.47;1.17;;;13.20;99.90;;;;;;5030189;28;20835;-57
2022/11/09 03:23:05;;;;;;;9.03;1.37;;;13.20;99.90;;;;;;5030111;28;20319;-58
2022/11/09 03:25:31;;;;;;;5.47;0.90;;;13.20;99.90;;;;;;5038070;28;20482;-56
2022/11/09 03:28:01;;;;;;;5.70;1.37;;;13.20;99.90;;;;;;5041375;28;20040;-57
2022/11/09 03:30:27;;;;;;;3.58;1.20;;;13.30;99.90;;;;;;5029947;28;20291;-58
2022/11/09 03:33:00;;;;;;;7.50;1.23;;;13.30;99.90;;;;;;5030114;28;20042;-57
2022/11/09 03:35:26;;;;;;;17.60;1.38;;;13.30;99.90;;;;;;5033706;28;20044;-57
2022/11/09 03:37:52;;;;;;;7.80;0.85;;;13.30;99.90;;;;;;5048473;28;20051;-57
2022/11/09 03:40:18;;;;;;;5.03;0.90;;;13.30;99.90;;;;;;5066210;28;20417;-58
2022/11/09 03:42:46;;;;;;;9.88;1.70;;;13.30;99.90;;;;;;5069884;28;20547;-57
2022/11/09 03:45:13;;;;;;;4.22;1.08;;;13.30;99.90;;;;;;5043721;28;20068;-54
2022/11/09 03:47:43;;;;;;;10.85;1.05;;;13.30;99.90;;;;;;5029913;28;20084;-53
2022/11/09 03:50:10;;;;;;;2.50;0.60;;;13.30;99.90;;;;;;5031401;28;20128;-56
2022/11/09 03:52:36;;;;;;;4.13;0.80;;;13.20;99.90;;;;;;5029620;28;20502;-55
2022/11/09 03:55:02;;;;;;;6.28;0.70;;;13.10;99.90;;;;;;5038271;28;20043;-56
2022/11/09 03:57:27;;;;;;;;;;;13.10;99.90;;;;;;5050204;28;20410;-55
2022/11/09 03:59:53;;;;;;;3.72;1.25;;;13.10;99.90;;;;;;5038407;28;19928;-56
2022/11/09 04:02:19;;;;;;;2.30;0.63;;;13.10;99.90;;;;;;5029509;28;20065;-55
2022/11/09 04:04:44;;;;;;;7.93;1.23;;;13.10;99.90;;;;;;5031762;28;20740;-55
2022/11/09 04:07:10;;;;;;;9.37;1.53;;;13.10;99.90;;;;;;5049907;28;20309;-56
2022/11/09 04:09:36;;;;;;;3.53;0.60;;;13.10;99.90;;;;;;5046071;28;20125;-55
2022/11/09 04:12:02;;;;;;;6.22;1.23;;;13.10;99.90;;;;;;5029948;28;20044;-54
2022/11/09 04:14:27;;;;;;;6.03;0.90;;;13.20;99.90;;;;;;5029206;28;20049;-56
2022/11/09 04:16:53;;;;;;;6.40;1.60;;;13.20;99.90;;;;;;5047966;28;20506;-56
2022/11/09 04:19:18;;;;;;;4.80;1.23;;;13.20;99.90;;;;;;5048195;28;20295;-56
2022/11/09 04:21:44;;;;;;;5.60;0.70;;;13.20;99.90;;;;;;5049290;28;20297;-56
2022/11/09 04:24:10;;;;;;;3.72;0.95;;;13.20;99.90;;;;;;5049318;28;20049;-56
2022/11/09 04:26:35;;;;;;;3.47;1.15;;;13.10;99.90;;;;;;5036147;28;20041;-56
2022/11/09 04:29:01;;;;;;;6.10;1.05;;;13.20;99.90;;;;;;5029701;28;20041;-56
2022/11/09 04:31:26;;;;;;;7.43;1.30;;;13.10;99.90;;;;;;5041723;28;20107;-56
2022/11/09 04:33:52;;;;;;;7.60;0.93;;;13.10;99.90;;;;;;5048991;28;20271;-54
2022/11/09 04:36:17;;;;;;;2.30;1.15;;;13.10;99.90;;;;;;5041353;28;20037;-54
2022/11/09 04:38:43;;;;;;;6.53;1.52;;;13.00;99.90;;;;;;5036193;28;20539;-55
2022/11/09 04:41:08;;;;;;;5.65;0.68;;;13.00;99.90;;;;;;5054919;28;20098;-54
2022/11/09 04:43:34;;;;;;;10.90;0.90;;;13.00;99.90;;;;;;5032184;28;20041;-51
2022/11/09 04:46:01;;;;;;;6.37;0.80;;;13.00;99.90;;;;;;5034839;28;20037;-52
2022/11/09 04:48:27;;;;;;;7.13;1.30;;;13.00;99.90;;;;;;5044844;28;20837;-54
2022/11/09 04:50:57;;;;;;;;;;;13.00;99.90;;;;;;5034675;28;20099;-53
2022/11/09 04:53:23;;;;;;;6.85;1.20;;;13.00;99.90;;;;;;5033563;28;19924;-55
2022/11/09 04:55:50;;;;;;;14.47;0.97;;;13.00;99.90;;;;;;5037015;28;20037;-53
2022/11/09 04:58:15;;;;;;;6.15;1.08;;;13.00;99.90;;;;;;5051593;28;20533;-55
2022/11/09 05:00:41;;;;;;;9.17;0.93;;;13.00;99.90;;;;;;5057565;28;20240;-55
2022/11/09 05:03:07;;;;;;;4.05;1.00;;;13.00;99.90;;;;;;5047552;28;20034;-55
2022/11/09 05:05:37;;;;;;;4.53;1.60;;;13.00;99.90;;;;;;5045032;28;20086;-55
2022/11/09 05:08:03;;;;;;;5.65;1.98;;;13.00;99.90;;;;;;5039713;28;20029;-53
2022/11/09 05:10:29;;;;;;;6.05;1.60;;;13.00;99.90;;;;;;5043555;28;20084;-55
2022/11/09 05:13:00;;;;;;;3.92;1.23;;;13.00;99.90;;;;;;5043234;28;20244;-55
2022/11/09 05:15:25;;;;;;;7.28;1.33;;;13.00;99.90;;;;;;5043484;28;20045;-53
2022/11/09 05:17:51;;;;;;;3.20;1.13;;;13.00;99.90;;;;;;5052831;28;20395;-56
2022/11/09 05:20:17;;;;;;;5.72;1.48;;;13.00;99.90;;;;;;5052216;28;20090;-53
2022/11/09 05:25:26;;;;;;;9.18;1.50;;;12.90;99.90;;;;;;5032436;28;20045;-53
2022/11/09 05:27:52;;;;;;;6.97;1.58;;;12.90;99.90;;;;;;5032163;28;20095;-55
2022/11/09 05:30:18;;;;;;;8.50;1.02;;;12.90;99.90;;;;;;5042649;28;20393;-52
2022/11/09 05:32:43;;;;;;;7.18;0.80;;;12.80;99.90;;;;;;5051376;28;20391;-54
2022/11/09 05:35:09;;;;;;;6.27;1.20;;;12.80;99.90;;;;;;5051138;28;20087;-56
2022/11/09 05:37:37;;;;;;;7.53;0.90;;;12.80;99.90;;;;;;5052444;28;20517;-54
2022/11/09 05:40:02;;;;;;;7.63;1.30;;;12.80;99.90;;;;;;5046045;28;20034;-54
2022/11/09 05:42:28;;;;;;;7.75;0.95;;;12.70;99.90;;;;;;5030627;28;20172;-54
2022/11/09 05:44:54;;;;;;;6.80;0.90;;;12.80;99.90;;;;;;5043856;28;20064;-56
2022/11/09 05:47:20;;;;;;;4.03;0.88;;;12.70;99.90;;;;;;5051927;28;20150;-55
2022/11/09 05:49:45;;;;;;;5.65;1.10;;;12.80;99.90;;;;;;5050288;28;20102;-55
2022/11/09 05:52:11;;;;;;;10.40;1.48;;;12.70;99.90;;;;;;5071728;28;20041;-55
2022/11/09 05:54:37;;;;;;;4.30;0.90;;;12.70;99.90;;;;;;5062603;28;20420;-56
2022/11/09 05:57:02;;;;;;;6.32;1.02;;;12.70;99.90;;;;;;5045666;28;20387;-56
2022/11/09 05:59:28;;;;;;;5.68;1.50;;;12.70;99.90;;;;;;5032034;28;20506;-56
2022/11/09 06:01:53;;;;;;;23.93;1.60;;;12.60;99.90;;;;;;5031693;28;20042;-55
2022/11/09 06:04:19;;;;;;;6.30;1.38;;;12.60;99.90;;;;;;5039746;28;20047;-56
2022/11/09 06:06:45;;;;;;;3.25;0.77;;;12.60;99.90;;;;;;5052163;28;20482;-56
2022/11/09 06:09:10;;;;;;;10.70;0.93;;;12.50;99.90;;;;;;5050291;28;20043;-55
2022/11/09 06:11:36;;;;;;;10.57;1.17;;;12.50;99.90;;;;;;5050127;28;20072;-55
2022/11/09 06:14:01;;;;;;;10.37;1.37;;;12.50;99.90;;;;;;5046662;28;20029;-55
2022/11/09 06:16:27;;;;;;;6.63;0.95;;;12.40;99.90;;;;;;5041670;28;20041;-56
2022/11/09 06:18:52;;;;;;;8.03;1.03;;;12.40;99.90;;;;;;5031436;28;20065;-56
2022/11/09 06:21:18;;;;;;;7.20;1.70;;;12.40;99.90;;;;;;5030054;28;20642;-55
2022/11/09 06:23:44;;;;;;;7.90;1.27;;;12.30;99.90;;;;;;5031114;28;20276;-55
2022/11/09 06:26:11;;;;;;;6.37;1.30;;;12.30;99.90;;;;;;5032136;28;20045;-57
2022/11/09 06:28:37;;;;;;;8.25;1.63;;;12.30;99.90;;;;;;5031409;28;20291;-56
2022/11/09 06:31:06;;;;;;;6.55;1.52;;;12.30;99.90;;;;;;5031397;28;20132;-56
2022/11/09 06:33:33;;;;;;;7.35;0.98;;;12.30;99.90;;;;;;5030895;28;20041;-55
2022/11/09 06:35:58;;;;;;;6.55;1.35;;;12.30;99.90;;;;;;5046766;28;20434;-56
2022/11/09 06:38:27;;;;;;;6.32;1.20;;;12.30;99.90;;;;;;5049803;28;20052;-56
2022/11/09 06:40:58;;;;;;;4.95;1.10;;;12.30;99.90;;;;;;5049604;28;20048;-56
2022/11/09 06:43:24;;;;;;;8.73;1.50;;;12.30;99.90;;;;;;5030866;28;20376;-56
2022/11/09 06:45:50;;;;;;;4.68;0.93;;;12.30;99.90;;;;;;5039506;28;20036;-56
2022/11/09 06:48:16;;;;;;;6.47;1.50;;;12.30;99.90;;;;;;5036732;28;20037;-57
2022/11/09 06:50:41;;;;;;;8.20;1.95;;;12.30;99.90;;;;;;5062153;28;20123;-57
2022/11/09 06:53:10;;;;;;;9.52;1.90;;;12.30;99.90;;;;;;5044084;28;20112;-56
2022/11/09 06:55:36;;;;;;;16.08;1.92;;;12.30;99.90;;;;;;5039262;28;20158;-56
2022/11/09 06:58:13;;;;;;;5.88;1.65;;;12.20;99.90;;;;;;5071002;28;20124;-53
2022/11/09 07:00:38;;;;;;;12.38;1.35;;;12.30;99.90;;;;;;5055568;28;20038;-54
2022/11/09 07:03:04;;;;;;;6.30;1.15;;;12.30;99.90;;;;;;5037101;28;20462;-55
2022/11/09 07:05:30;;;;;;;11.35;1.30;;;12.30;99.90;;;;;;5032333;28;20113;-54
2022/11/09 07:07:56;;;;;;;7.00;0.80;;;12.30;99.90;;;;;;5056081;28;20517;-55
2022/11/09 07:10:22;;;;;;;9.57;0.85;;;12.30;99.90;;;;;;5044183;28;20077;-55
2022/11/09 07:12:47;;;;;;;13.90;2.77;;;12.20;99.90;;;;;;5048930;28;20122;-55
2022/11/09 07:15:13;;;;;;;7.68;1.40;;;12.20;99.90;;;;;;5044038;28;20045;-55
2022/11/09 07:17:40;;;;;;;6.90;1.08;;;12.30;99.90;;;;;;5047924;28;20580;-53
2022/11/09 07:20:07;;;;;;;11.50;1.73;;;12.30;99.90;;;;;;5034732;28;20045;-55
2022/11/09 07:22:38;;;;;;;7.38;1.30;;;12.50;99.90;;;;;;5030838;28;20557;-55
2022/11/09 07:25:06;;;;;;;6.68;0.98;;;12.60;99.90;;;;;;5030928;28;20510;-55
2022/11/09 07:27:32;;;;;;;10.63;1.98;;;12.80;99.90;;;;;;5038301;28;20116;-52
2022/11/09 07:29:57;;;;;;;14.07;1.90;;;13.10;99.90;;;;;;5031344;28;20124;-54
2022/11/09 07:32:23;;;;;;;5.13;1.50;;;13.40;99.90;;;;;;5032972;28;20039;-54
2022/11/09 07:34:48;;;;;;;12.80;1.77;;;13.60;99.90;;;;;;5037453;28;20046;-56
2022/11/09 07:37:14;;;;;;;5.60;0.85;;;14.00;99.90;;;;;;5030216;28;20287;-54
2022/11/09 07:39:39;;;;;;;5.87;1.10;;;14.40;99.90;;;;;;5048020;28;20136;-55
2022/11/09 07:42:05;;;;;;;8.38;1.83;;;14.70;99.90;;;;;;5042876;28;20355;-54
2022/11/09 07:44:31;;;;;;;5.75;1.13;;;14.80;99.90;;;;;;5042638;28;20506;-55
2022/11/09 07:46:56;;;;;;;8.02;1.00;;;14.70;99.90;;;;;;5055089;28;20037;-55
2022/11/09 07:49:22;;;;;;;6.95;0.75;;;14.50;99.90;;;;;;5046072;28;20036;-56
2022/11/09 07:51:47;;;;;;;10.77;1.40;;;14.30;99.90;;;;;;5037112;28;20184;-55
2022/11/09 07:54:13;;;;;;;12.07;1.13;;;14.30;99.90;;;;;;5038263;28;20033;-53
2022/11/09 07:56:38;;;;;;;10.68;1.60;;;14.60;99.90;;;;;;5036332;28;20065;-54
2022/11/09 07:59:04;;;;;;;9.88;1.27;;;14.80;99.90;;;;;;5050951;28;20040;-56
2022/11/09 08:01:29;;;;;;;8.05;1.40;;;14.90;99.90;;;;;;5057169;28;20110;-56
2022/11/09 08:03:55;;;;;;;8.73;1.55;;;15.10;99.90;;;;;;5058202;28;20033;-55
2022/11/09 08:06:21;;;;;;;9.87;1.53;;;15.50;99.90;;;;;;5035388;28;20094;-53
2022/11/09 08:08:48;;;;;;;16.20;2.15;;;15.90;99.90;;;;;;5036219;28;20375;-58
2022/11/09 08:11:14;;;;;;;8.13;1.60;;;16.20;99.90;;;;;;5029623;28;20050;-58
2022/11/09 08:13:40;;;;;;;6.68;1.52;;;16.60;99.90;;;;;;5033849;28;20033;-55
2022/11/09 08:16:06;;;;;;;7.05;1.17;;;16.90;99.90;;;;;;5040984;28;20033;-55
2022/11/09 08:18:31;;;;;;;7.80;1.17;;;17.30;99.90;;;;;;5033768;28;20037;-57
2022/11/09 08:21:01;;;;;;;11.65;2.08;;;17.50;99.90;;;;;;5049242;28;20045;-57
2022/11/09 08:26:33;;;;;;;5.15;1.23;;;17.50;99.90;;;;;;5105670;27;20317;-56
2022/11/09 08:28:58;;;;;;;6.20;1.48;;;17.70;99.90;;;;;;5104818;28;20036;-56
2022/11/09 08:31:24;;;;;;;10.43;1.48;;;18.00;99.90;;;;;;5106520;28;20087;-55
2022/11/09 08:33:49;;;;;;;5.82;1.10;;;18.30;99.90;;;;;;5104948;28;20440;-55
2022/11/09 08:36:16;;;;;;;7.72;1.17;;;18.70;99.90;;;;;;5076032;28;20549;-57
2022/11/09 08:38:43;;;;;;;8.65;1.80;;;18.80;99.90;;;;;;5071019;28;20056;-56
2022/11/09 08:41:10;;;;;;;6.05;1.05;;;19.10;99.30;;;;;;5078982;28;20040;-58
2022/11/09 08:43:35;;;;;;;9.40;1.98;;;19.20;98.60;;;;;;5077160;28;20052;-54
2022/11/09 08:46:01;;;;;;;6.00;1.60;;;18.90;98.10;;;;;;5078472;28;20037;-53
2022/11/09 08:48:27;;;;;;;7.63;1.17;;;18.70;98.90;;;;;;5085933;28;20467;-55
2022/11/09 08:50:54;;;;;;;7.00;1.77;;;18.50;99.00;;;;;;5076226;28;20485;-54
2022/11/09 08:53:20;;;;;;;8.10;1.08;;;18.20;98.90;;;;;;5071780;28;20037;-57
2022/11/09 08:55:45;;;;;;;7.97;0.98;;;17.90;99.70;;;;;;5073854;28;20556;-57
2022/11/09 08:58:11;;;;;;;12.40;2.90;;;17.60;99.90;;;;;;5067646;28;20097;-58
2022/11/09 09:00:36;;;;;;;11.90;3.92;;;17.30;99.90;;;;;;5087643;28;20094;-55
2022/11/09 09:03:06;;;;;;;19.20;7.18;;;17.10;99.90;;;;;;5071321;28;20521;-56
2022/11/09 09:05:33;;;;;;;18.13;6.95;;;16.90;99.90;;;;;;5085598;28;20406;-52
2022/11/09 09:08:00;;;;;;;17.27;5.35;;;16.70;99.90;;;;;;5075461;28;20029;-55
2022/11/09 09:10:25;;;;;;;16.83;5.93;;;16.60;99.90;;;;;;5073408;28;20028;-53
2022/11/09 09:12:51;;;;;;;10.77;3.50;;;16.60;99.90;;;;;;5077136;28;20036;-54
2022/11/09 09:15:16;;;;;;;7.75;3.03;;;16.40;99.90;;;;;;5077852;28;20485;-53
2022/11/09 09:17:42;;;;;;;9.77;2.80;;;16.30;99.90;;;;;;5098864;28;20512;-53
2022/11/09 09:20:08;;;;;;;11.93;2.72;;;16.20;99.90;;;;;;5083820;28;20036;-52
2022/11/09 09:22:34;;;;;;;8.70;2.30;;;16.20;99.90;;;;;;5083622;28;20417;-52
2022/11/09 09:24:59;;;;;;;10.80;1.67;;;16.20;99.90;;;;;;5082826;28;20040;-52
2022/11/09 09:27:25;;;;;;;9.13;2.05;;;16.30;99.90;;;;;;5069617;28;20114;-53
2022/11/09 09:29:51;;;;;;;10.05;2.28;;;16.20;99.90;;;;;;5075389;28;20371;-52
2022/11/09 09:32:16;;;;;;;12.23;2.60;;;16.30;99.90;;;;;;5062640;28;20044;-51
2022/11/09 09:34:42;;;;;;;10.15;2.25;;;16.30;99.90;;;;;;5079485;28;20645;-52
2022/11/09 09:37:07;;;;;;;8.80;2.22;;;16.20;99.90;;;;;;5068359;28;20409;-52
2022/11/09 09:39:33;;;;;;;8.40;1.95;;;16.20;99.90;;;;;;5063769;28;20055;-53
2022/11/09 09:42:06;;;;;;;10.18;1.95;;;16.00;99.90;;;;;;5049730;28;20041;-53
2022/11/09 09:44:53;;;;;;;11.60;1.67;;;15.90;99.90;;;;;;5063447;28;20037;-52
2022/11/09 09:47:37;;;;;;;12.45;1.75;;;15.60;99.90;;;;;;5069050;28;20104;-51
2022/11/09 09:50:10;;;;;;;8.77;1.55;;;15.40;99.90;;;;;;5068268;28;20036;-50
2022/11/09 09:52:57;;;;;;;7.22;1.73;;;15.20;99.90;;;;;;5049647;28;20133;-50
2022/11/09 09:55:34;;;;;;;9.90;2.42;;;15.00;99.90;;;;;;5054894;28;20045;-50
2022/11/09 09:58:31;;;;;;;13.95;2.28;;;15.00;99.90;;;;;;5064861;28;20044;-51
2022/11/09 10:01:15;;;;;;;9.60;2.03;;;15.00;99.90;;;;;;5069535;28;20502;-52
2022/11/09 10:03:41;;;;;;;10.98;2.03;;;15.10;99.90;;;;;;5068889;28;20524;-51
2022/11/09 10:06:25;;;;;;;7.57;1.30;;;15.30;99.90;;;;;;5070188;28;20072;-50
2022/11/09 10:09:19;;;;;;;5.82;1.50;;;15.30;99.90;;;;;;5069233;28;20044;-53
2022/11/09 10:11:50;;;;;;;7.53;1.88;;;15.40;99.90;;;;;;5069583;28;20032;-50
2022/11/09 10:14:43;;;;;;;11.18;1.70;;;15.40;99.90;;;;;;5068879;28;20033;-52
2022/11/09 10:17:36;;;;;;;11.98;1.80;;;15.30;99.90;;;;;;5069290;28;20043;-51
2022/11/09 10:20:18;;;;;;;7.15;1.27;;;15.20;99.90;;;;;;5065731;28;20037;-53
2022/11/09 10:23:17;;;;;;;8.88;2.28;;;15.10;99.90;;;;;;5069606;28;20564;-50
2022/11/09 10:25:45;;;;;;;12.65;2.70;;;15.00;99.90;;;;;;5067435;28;20524;-53
2022/11/09 10:28:14;;;;;;;30.13;2.67;;;15.00;99.90;;;;;;5051773;28;20450;-52
2022/11/09 10:30:40;;;;;;;9.23;2.38;;;14.80;99.90;;;;;;5070939;28;20047;-54
2022/11/09 10:33:17;;;;;;;9.90;1.58;;;14.70;99.90;;;;;;5066749;28;20094;-51
2022/11/09 10:35:59;;;;;;;12.65;2.25;;;14.70;99.90;;;;;;5051378;28;20139;-50
2022/11/09 10:38:34;;;;;;;9.75;1.88;;;14.60;99.90;;;;;;5067528;28;20560;-52
2022/11/09 10:41:12;;;;;;;5.20;1.48;;;14.70;99.90;;;;;;5067400;28;20036;-53
2022/11/09 10:43:38;;;;;;;9.20;1.08;;;14.70;99.90;;;;;;5066895;28;20044;-53
2022/11/09 10:46:06;;;;;;;6.13;1.60;;;14.90;99.90;;;;;;5065417;28;20518;-53
2022/11/09 10:48:35;;;;;;;8.75;1.40;;;15.00;99.90;;;;;;5054706;28;20333;-52
2022/11/09 10:51:01;;;;;;;8.98;1.83;;;15.10;99.90;;;;;;5067211;28;20033;-54
2022/11/09 10:53:32;;;;;;;14.30;1.63;;;15.10;99.90;;;;;;5066295;28;20071;-53
2022/11/09 10:56:18;;;;;;;12.07;1.95;;;15.20;99.90;;;;;;5064653;28;20055;-53
2022/11/09 10:58:52;;;;;;;12.70;1.13;;;15.40;99.90;;;;;;5050951;28;20449;-51
2022/11/09 11:01:21;;;;;;;10.80;1.13;;;15.60;99.90;;;;;;5047773;28;20037;-52
2022/11/09 11:03:50;;;;;;;9.25;1.23;;;15.70;99.90;;;;;;5052645;28;20037;-53
2022/11/09 11:06:15;;;;;;;7.47;1.98;;;15.70;99.90;;;;;;5052737;28;20116;-55
2022/11/09 11:08:50;;;;;;;7.97;1.23;;;15.70;99.90;;;;;;5065925;28;20115;-55
2022/11/09 11:11:29;;;;;;;8.98;1.70;;;15.70;99.90;;;;;;5052841;28;20037;-57
2022/11/09 11:14:19;;;;;;;10.80;1.08;;;15.80;99.90;;;;;;5063534;28;20036;-53
2022/11/09 11:16:46;;;;;;;10.63;1.63;;;15.80;99.90;;;;;;5074802;28;20039;-54
2022/11/09 11:19:30;;;;;;;;;;;16.00;99.90;;;;;;5069187;28;20047;-56
2022/11/09 11:22:21;;;;;;;8.63;1.65;;;16.10;99.90;;;;;;5070839;28;20361;-51
2022/11/09 11:24:59;;;;;;;9.70;1.48;;;16.10;99.90;;;;;;5068899;28;20047;-55
2022/11/09 11:27:50;;;;;;;10.77;1.75;;;16.20;99.90;;;;;;5050389;28;20089;-54
2022/11/09 11:30:21;;;;;;;12.45;1.58;;;16.30;99.90;;;;;;5062095;28;20039;-56
2022/11/09 11:32:47;;;;;;;7.32;1.85;;;16.20;99.90;;;;;;5062655;28;20037;-54
2022/11/09 11:35:26;;;;;;;10.50;1.65;;;16.00;99.90;;;;;;5065033;28;20036;-53
2022/11/09 11:38:24;;;;;;;8.60;1.50;;;15.80;99.90;;;;;;5064259;28;20049;-54
2022/11/09 11:41:05;;;;;;;7.55;1.15;;;15.50;99.90;;;;;;5064363;28;20044;-56
2022/11/09 11:44:02;;;;;;;5.68;0.98;;;15.40;99.90;;;;;;5052884;28;20403;-55
2022/11/09 11:46:42;;;;;;;12.32;1.67;;;15.20;99.90;;;;;;5065615;28;20374;-55
2022/11/09 11:49:38;;;;;;;11.45;1.50;;;15.10;99.90;;;;;;5065433;28;20529;-55
2022/11/09 11:52:29;;;;;;;11.68;0.95;;;14.90;99.90;;;;;;5062766;28;20029;-54
2022/11/09 11:54:54;;;;;;;11.55;1.98;;;14.80;99.90;;;;;;5054772;28;20040;-53
2022/11/09 11:57:34;;;;;;;12.00;1.10;;;14.60;99.90;;;;;;5066620;28;20043;-55
2022/11/09 12:00:00;;;;;;;8.10;1.10;;;14.50;99.90;;;;;;5067038;28;20111;-52
2022/11/09 12:03:09;;;;;;;10.07;2.10;;;14.40;99.90;;;;;;5076920;28;20127;-52
2022/11/09 12:05:51;;;;;;;18.83;1.75;;;14.40;99.90;;;;;;5064112;28;20299;-53
2022/11/09 12:08:26;;;;;;;12.32;2.13;;;14.40;99.90;;;;;;5062270;28;20061;-52
2022/11/09 12:11:25;;;;;;;11.70;1.83;;;14.50;99.90;;;;;;5065350;28;20137;-54
2022/11/09 12:14:21;;;;;;;7.75;0.95;;;14.60;99.90;;;;;;5060949;28;20068;-53
2022/11/09 12:17:38;;;;;;;15.43;1.85;;;14.70;99.90;;;;;;5057896;28;20033;-52
2022/11/09 12:20:10;;;;;;;8.40;1.15;;;15.00;99.90;;;;;;5003032;28;20042;-55
2022/11/09 12:22:35;;;;;;;12.55;1.10;;;15.10;99.90;;;;;;5003325;28;20439;-52
2022/11/09 12:25:23;;;;;;;8.80;1.23;;;14.90;99.90;;;;;;5000654;28;20495;-52
2022/11/09 12:27:55;;;;;;;13.65;1.90;;;14.80;99.90;;;;;;5002473;28;20048;-53
2022/11/09 12:30:24;;;;;;;6.35;1.48;;;14.60;99.90;;;;;;5003330;28;20073;-52
2022/11/09 12:32:53;;;;;;;9.00;0.88;;;14.50;99.90;;;;;;5005353;28;20463;-54
2022/11/09 12:35:45;;;;;;;8.57;1.42;;;14.40;99.90;;;;;;5011451;28;20120;-54
2022/11/09 12:38:20;;;;;;;7.88;1.63;;;14.30;99.90;;;;;;5013905;28;20042;-53
2022/11/09 12:40:53;;;;;;;6.85;0.80;;;14.30;99.90;;;;;;5003326;28;20185;-55
2022/11/09 12:43:30;;;;;;;9.73;1.70;;;14.50;99.90;;;;;;4987760;28;20058;-52
2022/11/09 12:45:57;;;;;;;10.13;1.38;;;15.00;99.90;;;;;;5003735;28;20626;-53
2022/11/09 12:48:31;;;;;;;6.40;0.68;;;15.20;99.90;;;;;;4988849;28;20563;-52
2022/11/09 12:50:59;;;;;;;8.50;1.45;;;15.20;99.90;;;;;;4987635;28;20050;-53
2022/11/09 12:53:31;;;;;;;7.45;1.83;;;15.10;99.90;;;;;;5000009;28;20526;-53
2022/11/09 12:56:18;;;;;;;11.40;1.27;;;14.90;99.90;;;;;;5029593;28;21231;-54
2022/11/09 12:58:44;;;;;;;6.57;1.42;;;14.80;99.90;;;;;;5050978;28;20489;-53
2022/11/09 13:01:11;;;;;;;8.43;0.82;;;14.80;99.90;;;;;;5066393;28;20119;-52
2022/11/09 13:03:50;;;;;;;7.50;1.65;;;14.80;99.90;;;;;;5064067;28;20094;-53